Wednesday, October 18, 2017, 3:38 AM EDT
Back to Local

KAOO, Altoona-blair County Airport

Location: Martinsburg, PA, United States Lat: 40.3
Local Time: 3:38 AM EDT ( 7:38 GMT) Lon: -78.317
Time Zone: US/Eastern Elev: 1502 ft

Show me the last for .
Show Decoded

2017-10-18 02:53 METAR KAOO 180653Z AUTO 00000KT 10SM CLR 07/03 A3031 RMK AO2 SLP267 T00720033 =
2017-10-18 01:53 METAR KAOO 180553Z AUTO 23004KT 10SM CLR 08/03 A3031 RMK AO2 SLP266 T00780033
                 10111 20078 51002 =
2017-10-18 00:53 METAR KAOO 180453Z AUTO 20003KT 10SM CLR 09/03 A3030 RMK AO2 SLP265 T00890033
                 401720017 =
2017-10-17 23:53 METAR KAOO 180353Z AUTO 21004KT 10SM CLR 09/03 A3031 RMK AO2 SLP267 T00890033 =
2017-10-17 22:53 METAR KAOO 180253Z AUTO 21004KT 10SM CLR 09/03 A3030 RMK AO2 SLP266 T00940033
                 53009 =
2017-10-17 21:53 METAR KAOO 180153Z AUTO 17004KT 10SM CLR 08/04 A3029 RMK AO2 SLP264 T00830039 =
2017-10-17 20:53 METAR KAOO 180053Z AUTO 20004KT 10SM CLR 09/04 A3028 RMK AO2 SLP260 T00940039 =
2017-10-17 19:53 METAR KAOO 172353Z AUTO 00000KT 10SM CLR 10/04 A3027 RMK AO2 SLP261 T01000039
                 10172 20100 53008 =
2017-10-17 18:53 METAR KAOO 172253Z AUTO 25003KT 10SM CLR 13/03 A3026 RMK AO2 SLP253 T01330028 =
2017-10-17 17:53 METAR KAOO 172153Z AUTO 27005KT 10SM CLR 16/03 A3025 RMK AO2 SLP248 T01610028 =
2017-10-17 16:53 METAR KAOO 172053Z AUTO 27008KT 10SM CLR 17/01 A3025 RMK AO2 SLP248 T01720011
                 56014 =
2017-10-17 15:53 METAR KAOO 171953Z AUTO 27006KT 10SM CLR 17/01 A3027 RMK AO2 SLP254 T01720011 =
2017-10-17 14:53 METAR KAOO 171853Z AUTO VRB03KT 10SM CLR 16/01 A3027 RMK AO2 SLP256 T01610011 =
2017-10-17 13:53 METAR KAOO 171753Z AUTO VRB05KT 10SM CLR 15/02 A3029 RMK AO2 SLP263 T01500017
                 10150 20022 58020 =
2017-10-17 12:53 METAR KAOO 171653Z AUTO 00000KT 10SM CLR 14/02 A3033 RMK AO2 SLP274 T01390022 =
2017-10-17 11:53 METAR KAOO 171553Z AUTO 24003KT 10SM CLR 12/03 A3035 RMK AO2 SLP284 T01220028 =
2017-10-17 10:53 METAR KAOO 171453Z AUTO 23005KT 10SM CLR 10/03 A3035 RMK AO2 SLP285 T01000028
                 50004 =
2017-10-17 09:53 METAR KAOO 171353Z AUTO 22003KT 10SM CLR 08/02 A3036 RMK AO2 SLP285 T00830022 =
2017-10-17 08:53 METAR KAOO 171253Z AUTO 22004KT 10SM CLR 06/03 A3036 RMK AO2 SLP290 T00610028 =
2017-10-17 07:53 METAR KAOO 171153Z AUTO 17003KT 10SM CLR 02/01 A3034 RMK AO2 SLP285 70001
                 T00170006 10050 20017 51012 =
2017-10-17 06:53 METAR KAOO 171053Z AUTO 17003KT 10SM CLR 02/00 A3033 RMK AO2 SLP281 T00170000 =
2017-10-17 05:53 METAR KAOO 170953Z AUTO 00000KT 10SM CLR 02/01 A3033 RMK AO2 SLP277 T00220006 =
2017-10-17 04:53 METAR KAOO 170853Z AUTO 18003KT 10SM CLR 02/01 A3030 RMK AO2 SLP270 T00220006
                 53009 =
2017-10-17 03:53 METAR KAOO 170753Z AUTO 26003KT 10SM CLR 03/01 A3029 RMK AO2 SLP263 T00280006 =

Support USWX by starting your Amazon purchase here.